createdAt,value
2022-12-31T00:00:20.798Z,12.58
2022-12-31T00:01:52.478Z,12.60
2022-12-31T00:03:24.278Z,12.58
2022-12-31T00:04:55.890Z,12.85
2022-12-31T00:06:35.207Z,12.82
2022-12-31T00:08:06.955Z,12.70
2022-12-31T00:09:38.843Z,12.58
2022-12-31T00:11:10.770Z,12.57
2022-12-31T00:12:42.382Z,12.66
2022-12-31T00:14:14.394Z,12.79
2022-12-31T00:15:46.014Z,12.76
2022-12-31T00:17:17.569Z,12.79
2022-12-31T00:18:52.527Z,12.66
2022-12-31T00:20:24.149Z,12.56
2022-12-31T00:21:55.775Z,12.67
2022-12-31T00:23:27.505Z,12.77
2022-12-31T00:24:59.198Z,12.82
2022-12-31T00:26:33.715Z,12.86
2022-12-31T00:28:05.621Z,12.77
2022-12-31T00:29:37.239Z,12.77
2022-12-31T00:31:12.388Z,12.66
2022-12-31T00:32:44.068Z,12.62
2022-12-31T00:34:15.775Z,12.73
2022-12-31T00:35:47.400Z,12.69
2022-12-31T00:37:18.963Z,12.53
2022-12-31T00:38:52.272Z,12.53
2022-12-31T00:40:23.857Z,12.64
2022-12-31T00:41:55.432Z,12.69
2022-12-31T00:43:27.082Z,12.65
2022-12-31T00:44:58.787Z,12.56
2022-12-31T00:46:33.538Z,12.42
2022-12-31T00:48:05.495Z,12.57
2022-12-31T00:49:37.112Z,12.68
2022-12-31T00:51:11.750Z,12.62
2022-12-31T00:52:43.299Z,12.56
2022-12-31T00:54:15.144Z,12.53
2022-12-31T00:55:46.756Z,12.53
2022-12-31T00:57:18.347Z,12.63
2022-12-31T00:58:51.033Z,12.52
2022-12-31T01:00:22.643Z,12.49
2022-12-31T01:01:54.284Z,12.52
2022-12-31T01:03:26.088Z,12.47
2022-12-31T01:04:57.627Z,12.37
2022-12-31T01:06:29.398Z,12.34
2022-12-31T01:08:01.237Z,12.32
2022-12-31T01:09:33.014Z,12.30
2022-12-31T01:11:23.988Z,12.28
2022-12-31T01:12:55.621Z,12.42
2022-12-31T01:14:27.287Z,12.47
2022-12-31T01:16:07.355Z,12.53
2022-12-31T01:17:38.969Z,12.29
2022-12-31T01:19:13.433Z,12.50
2022-12-31T01:20:45.056Z,12.29
2022-12-31T01:22:16.712Z,12.41
2022-12-31T01:23:48.929Z,12.34
2022-12-31T01:25:20.916Z,12.60
2022-12-31T01:26:52.632Z,12.59
2022-12-31T01:28:24.260Z,12.43
2022-12-31T01:29:55.909Z,12.25
2022-12-31T01:31:28.220Z,12.27
2022-12-31T01:32:59.952Z,12.29
2022-12-31T01:34:31.616Z,12.27
2022-12-31T01:36:09.878Z,12.26
2022-12-31T01:37:41.407Z,12.29
2022-12-31T01:39:13.256Z,12.19
2022-12-31T01:40:44.925Z,12.34
2022-12-31T01:42:16.521Z,12.20
2022-12-31T01:43:54.440Z,12.09
2022-12-31T01:45:26.575Z,12.11
2022-12-31T01:47:02.316Z,12.06
2022-12-31T01:48:33.975Z,12.18
2022-12-31T01:50:22.827Z,12.39
2022-12-31T01:52:02.959Z,12.29
2022-12-31T01:53:37.261Z,12.34
2022-12-31T01:55:55.685Z,12.65
2022-12-31T01:57:27.947Z,12.41
2022-12-31T01:58:59.944Z,12.49
2022-12-31T02:00:32.827Z,12.44
2022-12-31T02:02:05.578Z,12.33
2022-12-31T02:03:38.557Z,12.30
2022-12-31T02:05:23.220Z,12.51
2022-12-31T02:07:03.642Z,12.40
2022-12-31T02:08:41.980Z,12.58
2022-12-31T02:10:14.061Z,12.52
2022-12-31T02:11:45.705Z,12.53
2022-12-31T02:13:17.371Z,12.39
2022-12-31T02:14:53.789Z,12.32
2022-12-31T02:16:46.760Z,12.66
2022-12-31T02:18:30.474Z,12.44
2022-12-31T02:20:17.304Z,12.34
2022-12-31T02:22:03.451Z,12.29
2022-12-31T02:24:01.217Z,12.75
2022-12-31T02:25:48.121Z,12.76
2022-12-31T02:27:46.791Z,12.76
2022-12-31T02:29:27.185Z,12.85
2022-12-31T02:31:12.030Z,13.03
2022-12-31T02:33:10.281Z,13.01
2022-12-31T02:34:52.807Z,13.09
2022-12-31T02:36:30.631Z,12.91
2022-12-31T02:38:10.659Z,12.91
2022-12-31T02:39:43.332Z,12.94
2022-12-31T02:41:37.611Z,13.01
2022-12-31T02:43:09.198Z,13.07
2022-12-31T02:44:43.321Z,13.27
2022-12-31T02:46:28.927Z,13.12
2022-12-31T02:48:22.048Z,12.93
2022-12-31T02:50:29.299Z,12.83
2022-12-31T02:52:10.728Z,13.05
2022-12-31T02:54:17.409Z,12.98
2022-12-31T02:55:51.895Z,13.06
2022-12-31T02:57:30.804Z,13.05
2022-12-31T02:59:32.731Z,13.23
2022-12-31T03:01:23.301Z,13.22
2022-12-31T03:02:56.183Z,13.11
2022-12-31T03:04:35.844Z,13.21
2022-12-31T03:06:09.537Z,13.12
2022-12-31T03:07:42.795Z,13.08
2022-12-31T03:09:14.422Z,12.98
2022-12-31T03:10:45.940Z,12.88
2022-12-31T03:12:38.708Z,12.89
2022-12-31T03:14:11.335Z,12.99
2022-12-31T03:15:43.027Z,12.91
2022-12-31T03:17:14.974Z,13.12
2022-12-31T03:19:05.055Z,12.90
2022-12-31T03:21:01.528Z,12.77
2022-12-31T03:22:36.345Z,12.70
2022-12-31T03:24:26.370Z,12.79
2022-12-31T03:25:59.108Z,12.69
2022-12-31T03:27:30.667Z,12.57
2022-12-31T03:29:02.260Z,12.76
2022-12-31T03:30:35.440Z,12.48
2022-12-31T03:32:09.338Z,12.36
2022-12-31T03:33:41.846Z,12.24
2022-12-31T03:35:14.899Z,12.27
2022-12-31T03:36:46.523Z,12.22
2022-12-31T03:38:19.045Z,12.24
2022-12-31T03:39:50.631Z,12.17
2022-12-31T03:41:22.214Z,12.08
2022-12-31T03:42:54.131Z,12.09
2022-12-31T03:44:25.659Z,12.04
2022-12-31T03:45:59.760Z,12.09
2022-12-31T03:47:31.760Z,12.00
2022-12-31T03:49:03.391Z,12.01
2022-12-31T03:50:35.641Z,12.02
2022-12-31T03:52:08.609Z,12.11
2022-12-31T03:53:40.166Z,12.03
2022-12-31T03:55:12.824Z,11.95
2022-12-31T03:56:44.402Z,11.99
2022-12-31T03:58:15.968Z,11.91
2022-12-31T03:59:47.623Z,11.93
2022-12-31T04:01:19.640Z,11.95
2022-12-31T04:02:51.496Z,11.91
2022-12-31T04:04:23.169Z,11.88
2022-12-31T04:05:55.609Z,11.95
2022-12-31T04:07:27.264Z,12.03
2022-12-31T04:08:58.836Z,12.12
2022-12-31T04:10:30.414Z,12.12
2022-12-31T04:12:02.002Z,12.16
2022-12-31T04:13:33.598Z,12.07
2022-12-31T04:15:07.125Z,12.04
2022-12-31T04:16:38.898Z,12.03
2022-12-31T04:18:10.555Z,11.99
2022-12-31T04:19:42.192Z,11.95
2022-12-31T04:21:13.821Z,11.98
2022-12-31T04:22:45.492Z,11.95
2022-12-31T04:24:17.126Z,11.91
2022-12-31T04:25:49.141Z,11.91
2022-12-31T04:27:20.717Z,12.12
2022-12-31T04:28:52.319Z,12.40
2022-12-31T04:30:23.904Z,12.39
2022-12-31T04:31:55.630Z,12.42
2022-12-31T04:33:27.199Z,12.85
2022-12-31T04:34:58.753Z,12.75
2022-12-31T04:36:30.611Z,12.77
2022-12-31T04:38:02.242Z,12.69
2022-12-31T04:39:33.791Z,12.66
2022-12-31T04:41:18.138Z,12.61
2022-12-31T04:42:49.761Z,12.74
2022-12-31T04:44:21.523Z,13.25
2022-12-31T04:45:53.282Z,13.20
2022-12-31T04:47:25.020Z,13.12
2022-12-31T04:48:56.817Z,13.01
2022-12-31T04:50:28.382Z,13.20
2022-12-31T04:52:00.072Z,13.27
2022-12-31T04:53:32.535Z,13.03
2022-12-31T04:55:04.426Z,12.87
2022-12-31T04:56:38.940Z,12.79
2022-12-31T04:58:10.595Z,12.67
2022-12-31T04:59:42.156Z,12.62
2022-12-31T05:01:14.447Z,12.47
2022-12-31T05:02:46.370Z,12.50
2022-12-31T05:04:18.084Z,12.47
2022-12-31T05:05:50.157Z,12.57
2022-12-31T05:07:21.716Z,12.52
2022-12-31T05:08:53.323Z,12.54
2022-12-31T05:10:25.007Z,12.52
2022-12-31T05:11:56.721Z,12.45
2022-12-31T05:13:33.156Z,12.40
2022-12-31T05:15:05.615Z,12.40
2022-12-31T05:16:37.283Z,12.37
2022-12-31T05:18:09.232Z,12.52
2022-12-31T05:19:40.834Z,12.53
2022-12-31T05:21:20.245Z,12.57
2022-12-31T05:22:51.992Z,12.52
2022-12-31T05:24:23.618Z,12.60
2022-12-31T05:25:55.280Z,12.54
2022-12-31T05:27:28.174Z,12.80
2022-12-31T05:29:00.568Z,12.97
2022-12-31T05:30:32.169Z,12.78
2022-12-31T05:32:03.826Z,12.79
2022-12-31T05:33:35.816Z,13.02
2022-12-31T05:35:08.367Z,12.94
2022-12-31T05:36:40.003Z,12.89
2022-12-31T05:38:11.727Z,12.87
2022-12-31T05:39:43.361Z,12.94
2022-12-31T05:41:14.943Z,12.90
2022-12-31T05:42:46.577Z,12.82
2022-12-31T05:44:18.144Z,12.72
2022-12-31T05:45:49.762Z,12.81
2022-12-31T05:47:21.822Z,12.87
2022-12-31T05:48:53.409Z,12.84
2022-12-31T05:50:25.167Z,12.77
2022-12-31T05:52:00.843Z,12.76
2022-12-31T05:53:34.329Z,12.83
2022-12-31T05:55:06.283Z,13.17
2022-12-31T05:56:38.534Z,13.01
2022-12-31T05:58:10.158Z,13.03
2022-12-31T05:59:42.438Z,13.42
2022-12-31T06:01:14.017Z,13.18
2022-12-31T06:02:45.760Z,12.96
2022-12-31T06:04:17.649Z,13.29
2022-12-31T06:05:49.242Z,13.07
2022-12-31T06:07:21.013Z,12.91
2022-12-31T06:08:52.632Z,12.75
2022-12-31T06:10:24.264Z,12.65
2022-12-31T06:11:55.790Z,12.79
2022-12-31T06:13:27.727Z,13.13
2022-12-31T06:14:59.454Z,13.24
2022-12-31T06:16:31.049Z,13.13
2022-12-31T06:18:05.123Z,13.05
2022-12-31T06:19:36.727Z,12.81
2022-12-31T06:21:08.372Z,12.65
2022-12-31T06:22:40.082Z,12.61
2022-12-31T06:24:12.060Z,12.60
2022-12-31T06:25:43.690Z,12.43
2022-12-31T06:27:15.341Z,12.29
2022-12-31T06:28:47.151Z,12.44
2022-12-31T06:30:18.788Z,12.38
2022-12-31T06:31:50.396Z,12.49
2022-12-31T06:33:22.733Z,12.53
2022-12-31T06:34:54.477Z,12.73
2022-12-31T06:36:27.065Z,12.64
2022-12-31T06:37:58.679Z,12.57
2022-12-31T06:39:30.285Z,12.46
2022-12-31T06:41:10.285Z,12.53
2022-12-31T06:42:42.667Z,12.48
2022-12-31T06:44:14.918Z,12.47
2022-12-31T06:45:46.502Z,12.45
2022-12-31T06:47:18.116Z,12.36
2022-12-31T06:48:49.811Z,12.48
2022-12-31T06:50:21.493Z,12.39
2022-12-31T06:51:53.085Z,12.36
2022-12-31T06:53:24.664Z,12.35
2022-12-31T06:54:56.481Z,12.47
2022-12-31T06:56:34.713Z,12.46
2022-12-31T06:58:09.457Z,12.49
2022-12-31T06:59:41.308Z,12.88
2022-12-31T07:01:31.185Z,13.16
2022-12-31T07:03:30.078Z,13.33
2022-12-31T07:05:24.085Z,13.32
2022-12-31T07:07:08.472Z,13.07
2022-12-31T07:08:54.919Z,12.98
2022-12-31T07:10:35.916Z,12.87
2022-12-31T07:12:33.909Z,12.93
2022-12-31T07:14:22.693Z,13.19
2022-12-31T07:16:06.222Z,12.96
2022-12-31T07:17:56.167Z,12.87
2022-12-31T07:19:44.416Z,12.73
2022-12-31T07:21:21.993Z,12.81
2022-12-31T07:22:54.967Z,13.02
2022-12-31T07:24:27.089Z,12.91
2022-12-31T07:26:07.391Z,12.72
2022-12-31T07:28:13.653Z,12.60
2022-12-31T07:30:01.394Z,12.43
2022-12-31T07:31:51.156Z,12.45
2022-12-31T07:33:32.811Z,12.36
2022-12-31T07:35:16.686Z,12.27
2022-12-31T07:36:51.028Z,12.17
2022-12-31T07:38:34.394Z,12.13
2022-12-31T07:40:11.323Z,12.11
2022-12-31T07:42:05.315Z,12.16
2022-12-31T07:43:55.492Z,12.04
2022-12-31T07:45:36.434Z,12.05
2022-12-31T07:47:21.422Z,12.11
2022-12-31T07:48:53.382Z,12.04
2022-12-31T07:50:25.414Z,12.03
2022-12-31T07:51:57.437Z,12.01
2022-12-31T07:53:29.327Z,11.99
2022-12-31T07:55:01.368Z,11.97
2022-12-31T07:56:33.275Z,11.98
2022-12-31T07:58:23.191Z,12.00
2022-12-31T08:00:13.275Z,12.06
2022-12-31T08:01:53.376Z,12.19
2022-12-31T08:03:55.218Z,12.36
2022-12-31T08:05:59.415Z,12.31
2022-12-31T08:07:31.048Z,12.46
2022-12-31T08:09:10.170Z,12.39
2022-12-31T08:10:49.928Z,12.32
2022-12-31T08:12:21.680Z,12.29
2022-12-31T08:13:56.216Z,12.31
2022-12-31T08:15:30.557Z,12.32
2022-12-31T08:17:02.820Z,12.39
2022-12-31T08:18:34.588Z,12.44
2022-12-31T08:20:07.030Z,12.48
2022-12-31T08:22:03.430Z,12.56
2022-12-31T08:23:55.557Z,12.69
2022-12-31T08:25:55.743Z,12.90
2022-12-31T08:27:54.999Z,13.00
2022-12-31T08:29:47.534Z,13.59
2022-12-31T08:31:27.427Z,14.08
2022-12-31T08:33:08.521Z,14.05
2022-12-31T08:35:06.203Z,14.32
2022-12-31T08:37:00.144Z,14.37
2022-12-31T08:38:53.047Z,14.40
2022-12-31T08:41:14.440Z,14.34
2022-12-31T08:42:45.951Z,14.21
2022-12-31T08:44:36.324Z,14.55
2022-12-31T08:46:23.296Z,14.55
2022-12-31T08:48:06.170Z,14.41
2022-12-31T08:49:37.956Z,14.34
2022-12-31T08:51:17.668Z,14.19
2022-12-31T08:52:49.517Z,14.23
2022-12-31T08:54:21.377Z,14.19
2022-12-31T08:56:01.354Z,14.35
2022-12-31T08:57:37.366Z,14.31
2022-12-31T08:59:36.714Z,14.27
2022-12-31T09:01:08.871Z,14.26
2022-12-31T09:03:07.621Z,14.39
2022-12-31T09:04:48.253Z,14.74
2022-12-31T09:06:46.973Z,14.82
2022-12-31T09:08:27.779Z,14.69
2022-12-31T09:10:37.888Z,14.82
2022-12-31T09:12:38.866Z,14.75
2022-12-31T09:14:19.285Z,14.93
2022-12-31T09:16:05.128Z,14.94
2022-12-31T09:17:44.939Z,14.87
2022-12-31T09:19:16.597Z,14.70
2022-12-31T09:20:48.413Z,14.59
2022-12-31T09:22:20.269Z,14.56
2022-12-31T09:23:52.090Z,14.69
2022-12-31T09:25:25.483Z,14.66
2022-12-31T09:27:21.240Z,14.53
2022-12-31T09:29:18.969Z,14.69
2022-12-31T09:31:01.734Z,14.65
2022-12-31T09:33:00.602Z,14.66
2022-12-31T09:34:56.602Z,14.64
2022-12-31T09:36:34.357Z,14.63
2022-12-31T09:38:30.854Z,14.49
2022-12-31T09:40:28.783Z,14.48
2022-12-31T09:42:37.306Z,14.87
2022-12-31T09:44:23.836Z,15.10
2022-12-31T09:46:52.487Z,15.26
2022-12-31T09:48:57.745Z,15.22
2022-12-31T09:50:37.784Z,15.17
2022-12-31T09:52:36.419Z,15.25
2022-12-31T09:54:16.953Z,15.27
2022-12-31T09:56:10.101Z,15.15
2022-12-31T09:57:58.330Z,15.05
2022-12-31T09:59:41.092Z,15.03
2022-12-31T10:01:50.474Z,15.20
2022-12-31T10:03:49.285Z,15.49
2022-12-31T10:05:48.365Z,15.90
2022-12-31T10:07:41.104Z,15.93
2022-12-31T10:09:31.013Z,15.78
2022-12-31T10:11:05.447Z,15.79
2022-12-31T10:12:54.980Z,16.02
2022-12-31T10:14:29.271Z,15.92
2022-12-31T10:16:05.899Z,15.78
2022-12-31T10:18:05.268Z,16.04
2022-12-31T10:19:57.968Z,15.91
2022-12-31T10:21:47.741Z,15.76
2022-12-31T10:23:37.997Z,15.86
2022-12-31T10:25:38.784Z,15.89
2022-12-31T10:27:21.284Z,15.60
2022-12-31T10:29:14.101Z,15.51
2022-12-31T10:31:20.930Z,15.74
2022-12-31T10:33:15.526Z,15.74
2022-12-31T10:34:54.811Z,15.75
2022-12-31T10:36:32.114Z,15.71
2022-12-31T10:38:03.620Z,15.56
2022-12-31T10:39:40.837Z,15.44
2022-12-31T10:41:45.658Z,15.30
2022-12-31T10:44:05.482Z,15.33
2022-12-31T10:45:58.660Z,15.25
2022-12-31T10:47:53.265Z,15.20
2022-12-31T10:49:52.277Z,15.20
2022-12-31T10:51:41.794Z,15.36
2022-12-31T10:53:22.444Z,15.35
2022-12-31T10:55:26.285Z,15.55
2022-12-31T10:57:16.585Z,15.85
2022-12-31T10:59:10.139Z,15.79
2022-12-31T11:00:50.498Z,15.80
2022-12-31T11:02:40.647Z,15.86
2022-12-31T11:04:42.779Z,16.08
2022-12-31T11:06:38.526Z,16.23
2022-12-31T11:08:47.448Z,16.51
2022-12-31T11:10:38.245Z,16.54
2022-12-31T11:12:24.596Z,16.81
2022-12-31T11:14:08.071Z,17.15
2022-12-31T11:15:54.234Z,18.56
2022-12-31T11:17:44.072Z,19.11
2022-12-31T11:19:36.568Z,19.64
2022-12-31T11:22:02.566Z,21.41
2022-12-31T11:23:52.886Z,22.50
2022-12-31T11:25:34.150Z,21.90
2022-12-31T11:27:30.658Z,21.80
2022-12-31T11:29:20.354Z,23.55
2022-12-31T11:31:19.357Z,25.38
2022-12-31T11:33:15.254Z,26.64
2022-12-31T11:35:09.045Z,26.52
2022-12-31T11:36:44.478Z,27.08
2022-12-31T11:38:26.351Z,27.07
2022-12-31T11:40:12.860Z,27.65
2022-12-31T11:41:54.679Z,28.21
2022-12-31T11:43:28.047Z,28.07
2022-12-31T11:45:12.643Z,29.60
2022-12-31T11:47:14.399Z,29.75
2022-12-31T11:49:16.483Z,26.66
2022-12-31T11:51:02.542Z,22.72
2022-12-31T11:53:05.667Z,21.07
2022-12-31T11:54:53.197Z,19.62
2022-12-31T11:56:28.299Z,19.17
2022-12-31T11:58:09.759Z,19.08
2022-12-31T11:59:41.305Z,18.86
2022-12-31T12:01:19.990Z,18.85
2022-12-31T12:02:54.822Z,18.85
2022-12-31T12:04:26.632Z,18.70
2022-12-31T12:05:59.165Z,18.63
2022-12-31T12:07:32.421Z,18.34
2022-12-31T12:09:07.243Z,18.18
2022-12-31T12:10:52.663Z,18.04
2022-12-31T12:12:24.345Z,18.19
2022-12-31T12:13:56.979Z,18.30
2022-12-31T12:15:35.400Z,18.21
2022-12-31T12:17:21.789Z,18.17
2022-12-31T12:19:04.396Z,18.34
2022-12-31T12:20:40.057Z,18.29
2022-12-31T12:22:14.475Z,18.22
2022-12-31T12:24:05.760Z,18.21
2022-12-31T12:25:40.293Z,18.11
2022-12-31T12:27:23.381Z,18.33
2022-12-31T12:28:55.053Z,18.33
2022-12-31T12:30:28.183Z,18.26
2022-12-31T12:32:15.661Z,18.17
2022-12-31T12:33:48.956Z,18.07
2022-12-31T12:35:26.586Z,17.88
2022-12-31T12:36:58.395Z,17.80
2022-12-31T12:38:30.014Z,17.83
2022-12-31T12:40:21.478Z,17.94
2022-12-31T12:42:19.379Z,18.06
2022-12-31T12:44:03.382Z,18.07
2022-12-31T12:45:51.741Z,17.99
2022-12-31T12:47:25.953Z,17.98
2022-12-31T12:48:58.569Z,17.71
2022-12-31T12:50:42.107Z,17.67
2022-12-31T12:52:32.174Z,17.64
2022-12-31T12:54:25.455Z,17.67
2022-12-31T12:56:38.628Z,17.30
2022-12-31T12:58:45.287Z,17.13
2022-12-31T13:00:25.071Z,17.07
2022-12-31T13:02:15.430Z,17.08
2022-12-31T13:04:32.444Z,17.01
2022-12-31T13:06:01.551Z,16.90
2022-12-31T13:08:05.377Z,16.83
2022-12-31T13:09:42.711Z,16.77
2022-12-31T13:11:29.627Z,17.02
2022-12-31T13:13:22.759Z,17.08
2022-12-31T13:15:42.792Z,16.94
2022-12-31T13:18:01.446Z,17.03
2022-12-31T13:19:33.544Z,16.99
2022-12-31T13:21:32.671Z,16.91
2022-12-31T13:23:16.467Z,16.85
2022-12-31T13:25:06.103Z,16.90
2022-12-31T13:27:11.508Z,17.04
2022-12-31T13:28:45.614Z,16.95
2022-12-31T13:30:20.857Z,16.90
2022-12-31T13:31:55.341Z,16.73
2022-12-31T13:33:39.335Z,16.68
2022-12-31T13:35:23.596Z,16.59
2022-12-31T13:36:58.862Z,16.78
2022-12-31T13:38:44.720Z,16.65
2022-12-31T13:40:44.699Z,16.50
2022-12-31T13:42:35.817Z,16.42
2022-12-31T13:44:29.431Z,16.23
2022-12-31T13:46:42.818Z,16.12
2022-12-31T13:48:20.041Z,16.16
2022-12-31T13:50:03.188Z,16.12
2022-12-31T13:51:46.445Z,16.09
2022-12-31T13:53:36.615Z,16.01
2022-12-31T13:55:19.066Z,16.04
2022-12-31T13:56:52.658Z,16.18
2022-12-31T13:58:35.845Z,16.15
2022-12-31T14:00:20.278Z,16.15
2022-12-31T14:02:02.405Z,16.14
2022-12-31T14:03:39.881Z,16.09
2022-12-31T14:05:11.436Z,16.02
2022-12-31T14:07:00.900Z,16.31
2022-12-31T14:08:32.709Z,16.32
2022-12-31T14:10:15.019Z,16.46
2022-12-31T14:12:01.653Z,16.39
2022-12-31T14:13:52.504Z,16.24
2022-12-31T14:15:37.862Z,16.19
2022-12-31T14:17:12.329Z,16.04
2022-12-31T14:18:52.976Z,15.92
2022-12-31T14:20:39.700Z,15.80
2022-12-31T14:22:16.997Z,15.68
2022-12-31T14:24:21.879Z,15.58
2022-12-31T14:26:00.248Z,15.61
2022-12-31T14:27:43.181Z,15.53
2022-12-31T14:29:45.214Z,15.39
2022-12-31T14:31:49.156Z,15.21
2022-12-31T14:33:23.593Z,15.09
2022-12-31T14:35:29.195Z,15.00
2022-12-31T14:37:17.358Z,14.94
2022-12-31T14:39:02.867Z,14.88
2022-12-31T14:41:01.423Z,14.81
2022-12-31T14:42:43.990Z,14.75
2022-12-31T14:44:27.962Z,14.64
2022-12-31T14:46:13.157Z,14.61
2022-12-31T14:47:51.339Z,14.52
2022-12-31T14:49:32.044Z,14.42
2022-12-31T14:51:04.814Z,14.46
2022-12-31T14:52:51.405Z,14.48
2022-12-31T14:54:36.101Z,14.52
2022-12-31T14:56:29.451Z,14.52
2022-12-31T15:00:01.212Z,14.36
2022-12-31T15:01:33.718Z,14.27
2022-12-31T15:03:05.355Z,14.19
2022-12-31T15:04:44.867Z,14.13
2022-12-31T15:06:37.579Z,14.03
2022-12-31T15:08:36.959Z,14.01
2022-12-31T15:10:14.524Z,14.44
2022-12-31T15:11:46.301Z,14.43
2022-12-31T15:13:24.404Z,14.16
2022-12-31T15:15:15.100Z,14.16
2022-12-31T15:17:14.861Z,14.10
2022-12-31T15:19:04.161Z,14.31
2022-12-31T15:21:04.823Z,14.18
2022-12-31T15:22:39.866Z,14.01
2022-12-31T15:24:30.901Z,13.92
2022-12-31T15:26:04.363Z,13.74
2022-12-31T15:27:38.652Z,13.59
2022-12-31T15:29:25.829Z,13.44
2022-12-31T15:31:06.199Z,13.33
2022-12-31T15:32:46.274Z,13.22
2022-12-31T15:34:32.947Z,13.09
2022-12-31T15:36:20.671Z,13.05
2022-12-31T15:38:23.351Z,12.98
2022-12-31T15:40:17.640Z,12.90
2022-12-31T15:42:35.599Z,12.84
2022-12-31T15:43:52.804Z,12.80
2022-12-31T15:45:37.045Z,12.69
2022-12-31T15:47:32.284Z,12.66
2022-12-31T15:49:15.691Z,12.61
2022-12-31T15:50:51.812Z,12.54
2022-12-31T15:52:36.557Z,12.49
2022-12-31T15:54:20.521Z,12.50
2022-12-31T15:55:54.534Z,12.51
2022-12-31T15:57:37.776Z,12.44
2022-12-31T15:59:13.699Z,12.36
2022-12-31T16:01:03.423Z,12.43
2022-12-31T16:02:35.579Z,12.48
2022-12-31T16:04:14.346Z,12.52
2022-12-31T16:05:46.009Z,12.45
2022-12-31T16:07:18.442Z,12.35
2022-12-31T16:08:50.229Z,12.21
2022-12-31T16:10:26.719Z,12.24
2022-12-31T16:11:59.626Z,12.19
2022-12-31T16:13:35.080Z,12.10
2022-12-31T16:15:08.512Z,12.00
2022-12-31T16:16:55.347Z,11.99
2022-12-31T16:18:40.584Z,11.92
2022-12-31T16:20:32.581Z,11.86
2022-12-31T16:22:17.794Z,12.01
2022-12-31T16:23:50.843Z,11.87
2022-12-31T16:25:32.016Z,11.75
2022-12-31T16:27:12.175Z,11.69
2022-12-31T16:28:48.016Z,11.65
2022-12-31T16:30:20.111Z,11.63
2022-12-31T16:31:53.747Z,11.63
2022-12-31T16:33:26.383Z,11.67
2022-12-31T16:34:57.991Z,11.59
2022-12-31T16:36:29.755Z,11.50
2022-12-31T16:38:11.314Z,11.48
2022-12-31T16:39:58.179Z,11.53
2022-12-31T16:41:41.877Z,11.40
2022-12-31T16:43:36.861Z,11.33
2022-12-31T16:45:38.658Z,11.36
2022-12-31T16:47:17.506Z,11.30
2022-12-31T16:48:54.018Z,11.25
2022-12-31T16:50:26.980Z,11.21
2022-12-31T16:52:04.036Z,11.17
2022-12-31T16:53:38.210Z,11.14
2022-12-31T16:55:16.530Z,11.12
2022-12-31T16:56:48.373Z,11.10
2022-12-31T16:58:28.356Z,11.04
2022-12-31T17:00:04.257Z,11.01
2022-12-31T17:01:37.284Z,10.96
2022-12-31T17:03:15.548Z,10.98
2022-12-31T17:04:55.942Z,10.97
2022-12-31T17:06:32.064Z,10.98
2022-12-31T17:08:24.741Z,10.93
2022-12-31T17:10:08.618Z,10.89
2022-12-31T17:11:53.920Z,10.89
2022-12-31T17:13:32.023Z,10.88
2022-12-31T17:15:06.505Z,10.81
2022-12-31T17:17:03.784Z,10.81
2022-12-31T17:18:38.497Z,10.80
2022-12-31T17:20:23.026Z,10.77
2022-12-31T17:21:54.721Z,10.75
2022-12-31T17:23:31.489Z,10.75
2022-12-31T17:25:29.737Z,10.70
2022-12-31T17:27:09.490Z,10.68
2022-12-31T17:28:49.881Z,10.67
2022-12-31T17:30:30.471Z,10.66
2022-12-31T17:32:06.653Z,10.67
2022-12-31T17:33:38.341Z,10.59
2022-12-31T17:35:43.616Z,10.56
2022-12-31T17:37:41.399Z,10.54
2022-12-31T17:39:17.846Z,10.47
2022-12-31T17:40:54.546Z,10.45
2022-12-31T17:42:32.309Z,10.43
2022-12-31T17:44:04.508Z,10.39
2022-12-31T17:45:37.494Z,10.39
2022-12-31T17:47:13.872Z,10.37
2022-12-31T17:48:51.543Z,10.34
2022-12-31T17:50:25.438Z,10.29
2022-12-31T17:51:57.237Z,10.27
2022-12-31T17:53:29.187Z,10.27
2022-12-31T17:55:00.787Z,10.29
2022-12-31T17:56:32.360Z,10.30
2022-12-31T17:58:06.504Z,10.28
2022-12-31T17:59:38.163Z,10.40
2022-12-31T18:01:13.830Z,10.33
2022-12-31T18:02:45.601Z,10.26
2022-12-31T18:04:19.273Z,10.21
2022-12-31T18:05:51.060Z,10.18
2022-12-31T18:07:22.663Z,10.15
2022-12-31T18:08:54.254Z,10.11
2022-12-31T18:10:28.359Z,10.08
2022-12-31T18:12:02.017Z,10.09
2022-12-31T18:13:33.985Z,10.07
2022-12-31T18:15:06.574Z,10.07
2022-12-31T18:16:38.163Z,10.05
2022-12-31T18:18:25.930Z,10.04
2022-12-31T18:20:06.349Z,10.04
2022-12-31T18:21:38.356Z,10.07
2022-12-31T18:23:22.694Z,10.08
2022-12-31T18:24:54.525Z,10.10
2022-12-31T18:26:26.680Z,10.16
2022-12-31T18:27:58.808Z,10.22
2022-12-31T18:29:30.419Z,10.48
2022-12-31T18:31:02.903Z,10.43
2022-12-31T18:32:34.727Z,10.31
2022-12-31T18:34:06.647Z,10.41
2022-12-31T18:36:07.799Z,10.42
2022-12-31T18:37:33.464Z,10.23
2022-12-31T18:39:05.071Z,10.07
2022-12-31T18:40:39.737Z,10.01
2022-12-31T18:42:13.445Z,10.08
2022-12-31T18:43:45.971Z,10.01
2022-12-31T18:45:19.541Z,9.87
2022-12-31T18:46:51.439Z,9.76
2022-12-31T18:48:26.729Z,9.69
2022-12-31T18:49:58.441Z,9.67
2022-12-31T18:51:32.487Z,9.62
2022-12-31T18:53:04.300Z,9.58
2022-12-31T18:54:35.889Z,9.58
2022-12-31T18:56:15.233Z,9.53
2022-12-31T18:57:46.924Z,9.50
2022-12-31T18:59:18.512Z,9.47
2022-12-31T19:00:51.270Z,9.44
2022-12-31T19:02:22.985Z,9.44
2022-12-31T19:04:00.768Z,9.43
2022-12-31T19:05:34.404Z,9.37
2022-12-31T19:07:06.006Z,9.34
2022-12-31T19:08:37.551Z,9.32
2022-12-31T19:10:09.233Z,9.29
2022-12-31T19:11:42.249Z,9.34
2022-12-31T19:13:15.897Z,9.30
2022-12-31T19:14:47.453Z,9.27
2022-12-31T19:16:19.186Z,9.26
2022-12-31T19:17:50.845Z,9.29
2022-12-31T19:19:22.397Z,9.26
2022-12-31T19:20:53.921Z,9.24
2022-12-31T19:22:25.525Z,9.23
2022-12-31T19:23:57.139Z,9.19
2022-12-31T19:25:33.870Z,9.12
2022-12-31T19:27:05.580Z,9.17
2022-12-31T19:28:37.114Z,9.09
2022-12-31T19:30:32.691Z,9.09
2022-12-31T19:32:04.659Z,9.09
2022-12-31T19:33:36.355Z,9.09
2022-12-31T19:35:11.484Z,9.14
2022-12-31T19:36:44.218Z,9.07
2022-12-31T19:38:24.934Z,9.11
2022-12-31T19:39:56.525Z,9.22
2022-12-31T19:41:28.193Z,9.14
2022-12-31T19:42:59.781Z,9.12
2022-12-31T19:44:31.350Z,9.06
2022-12-31T19:46:03.826Z,9.03
2022-12-31T19:47:35.415Z,8.99
2022-12-31T19:49:07.003Z,8.97
2022-12-31T19:50:42.684Z,8.93
2022-12-31T19:52:14.259Z,8.95
2022-12-31T19:53:47.208Z,8.94
2022-12-31T19:55:21.607Z,8.90
2022-12-31T19:56:53.235Z,8.87
2022-12-31T19:58:26.660Z,8.82
2022-12-31T19:59:58.252Z,8.84
2022-12-31T20:01:30.077Z,8.89
2022-12-31T20:03:01.937Z,8.88
2022-12-31T20:04:33.752Z,8.81
2022-12-31T20:06:08.468Z,8.79
2022-12-31T20:07:40.028Z,8.82
2022-12-31T20:09:11.775Z,8.85
2022-12-31T20:10:43.805Z,8.83
2022-12-31T20:12:15.378Z,8.83
2022-12-31T20:13:47.930Z,8.82
2022-12-31T20:15:19.502Z,8.87
2022-12-31T20:16:52.479Z,8.87
2022-12-31T20:18:24.260Z,8.86
2022-12-31T20:19:55.805Z,8.83
2022-12-31T20:21:28.836Z,8.92
2022-12-31T20:23:00.415Z,8.90
2022-12-31T20:24:32.062Z,8.94
2022-12-31T20:26:03.855Z,8.92
2022-12-31T20:27:35.707Z,8.88
2022-12-31T20:29:07.307Z,8.86
2022-12-31T20:30:38.976Z,8.99
2022-12-31T20:32:10.560Z,8.93
2022-12-31T20:33:42.809Z,8.86
2022-12-31T20:35:14.458Z,8.83
2022-12-31T20:36:46.063Z,8.80
2022-12-31T20:38:17.696Z,8.73
2022-12-31T20:39:49.311Z,8.72
2022-12-31T20:41:22.668Z,8.79
2022-12-31T20:42:54.356Z,8.78
2022-12-31T20:44:25.891Z,8.76
2022-12-31T20:45:57.702Z,8.74
2022-12-31T20:47:29.330Z,8.72
2022-12-31T20:49:03.365Z,8.70
2022-12-31T20:50:35.175Z,8.70
2022-12-31T20:52:06.770Z,8.67
2022-12-31T20:53:38.407Z,8.65
2022-12-31T20:55:17.972Z,8.60
2022-12-31T20:56:49.567Z,8.61
2022-12-31T20:58:21.334Z,8.59
2022-12-31T20:59:52.936Z,8.59
2022-12-31T21:01:26.239Z,8.56
2022-12-31T21:03:14.388Z,8.59
2022-12-31T21:04:52.698Z,8.55
2022-12-31T21:06:24.593Z,8.52
2022-12-31T21:07:56.200Z,8.54
2022-12-31T21:09:27.763Z,8.50
2022-12-31T21:10:59.469Z,8.47
2022-12-31T21:12:53.001Z,8.44
2022-12-31T21:14:24.686Z,8.44
2022-12-31T21:15:56.302Z,8.41
2022-12-31T21:17:28.682Z,8.40
2022-12-31T21:19:01.255Z,8.43
2022-12-31T21:20:32.874Z,8.38
2022-12-31T21:22:04.569Z,8.44
2022-12-31T21:23:36.147Z,8.38
2022-12-31T21:25:08.006Z,8.38
2022-12-31T21:26:39.667Z,8.34
2022-12-31T21:28:12.284Z,8.36